Time;durP1;ratioP1;P1;durP2;ratioP2;P2;SDS_P1;SDS_P2;PMS_P1;PMS_P2;Temp;Humidity;BMP_temperature;BMP_pressure;BME280_temperature;BME280_humidity;BME280_pressure;Samples;Min_cycle;Max_cycle;Signal;HPM_P1;HPM_P2
2023/03/01 00:01:29;;;;;;;22.00;20.47;;;6.20;16.20;;;;;;4953517;28;20426;-47
2023/03/01 00:03:56;;;;;;;22.00;20.23;;;6.20;16.40;;;;;;4953782;28;20414;-45
2023/03/01 00:06:22;;;;;;;22.43;20.67;;;6.10;16.30;;;;;;4971180;28;20760;-50
2023/03/01 00:08:48;;;;;;;22.03;20.33;;;6.10;16.40;;;;;;4953189;28;20461;-60
2023/03/01 00:11:28;;;;;;;22.73;21.10;;;6.10;16.60;;;;;;4953051;28;20433;-58
2023/03/01 00:13:56;;;;;;;21.77;20.27;;;6.00;16.70;;;;;;4953127;28;20921;-59
2023/03/01 00:16:28;;;;;;;21.53;20.03;;;6.00;16.70;;;;;;4970512;28;20414;-47
2023/03/01 00:18:55;;;;;;;24.27;22.40;;;6.00;16.70;;;;;;4952585;28;20564;-45
2023/03/01 00:21:22;;;;;;;22.03;20.43;;;6.00;16.50;;;;;;4954124;28;20433;-46
2023/03/01 00:23:50;;;;;;;22.00;20.60;;;6.00;16.70;;;;;;4952591;28;20422;-48
2023/03/01 00:26:18;;;;;;;22.30;20.70;;;5.90;16.80;;;;;;4952831;28;20958;-46
2023/03/01 00:28:44;;;;;;;21.57;19.97;;;5.90;16.80;;;;;;4952812;28;20499;-46
2023/03/01 00:31:17;;;;;;;21.40;19.90;;;5.90;16.70;;;;;;4952729;28;20421;-49
2023/03/01 00:33:43;;;;;;;21.10;19.60;;;6.00;16.80;;;;;;4953128;28;20425;-50
2023/03/01 00:36:10;;;;;;;22.10;20.40;;;6.00;16.80;;;;;;4953065;28;20445;-58
2023/03/01 00:38:41;;;;;;;22.93;21.17;;;6.00;16.70;;;;;;4953098;28;20442;-59
2023/03/01 00:41:09;;;;;;;22.10;20.40;;;6.00;16.60;;;;;;4952765;28;20521;-47
2023/03/01 00:43:37;;;;;;;22.00;20.50;;;6.00;16.70;;;;;;4953512;28;20410;-49
2023/03/01 00:46:05;;;;;;;23.30;21.50;;;6.10;16.70;;;;;;4952784;28;20418;-50
2023/03/01 00:48:31;;;;;;;21.77;20.27;;;6.00;16.50;;;;;;4952235;28;20433;-47
2023/03/01 00:51:03;;;;;;;21.57;20.17;;;6.10;16.60;;;;;;4952317;28;20464;-49
2023/03/01 00:53:29;;;;;;;21.77;20.10;;;6.00;16.70;;;;;;4953211;28;20413;-60
2023/03/01 00:55:57;;;;;;;22.23;20.57;;;6.00;16.60;;;;;;4952652;28;20818;-58
2023/03/01 00:58:22;;;;;;;23.37;21.67;;;5.90;16.80;;;;;;4952455;28;20229;-58
2023/03/01 01:00:48;;;;;;;22.30;20.73;;;5.90;16.90;;;;;;4952676;28;20926;-57
2023/03/01 01:03:14;;;;;;;22.37;20.70;;;5.90;17.20;;;;;;4952453;28;20306;-59
2023/03/01 01:05:39;;;;;;;21.87;20.27;;;5.90;17.40;;;;;;4951925;28;20186;-59
2023/03/01 01:08:05;;;;;;;21.67;20.17;;;5.90;17.20;;;;;;4952792;28;20719;-57
2023/03/01 01:10:33;;;;;;;21.60;20.10;;;6.00;17.00;;;;;;4951740;28;20273;-58
2023/03/01 01:12:58;;;;;;;22.40;20.57;;;5.80;17.30;;;;;;4952703;28;20791;-60
2023/03/01 01:15:26;;;;;;;22.90;21.23;;;5.80;17.30;;;;;;4953420;28;20500;-59
2023/03/01 01:17:52;;;;;;;22.10;20.20;;;5.80;17.30;;;;;;4969158;28;20657;-57
2023/03/01 01:20:18;;;;;;;23.50;21.87;;;5.70;17.30;;;;;;4969363;28;20859;-59
2023/03/01 01:22:44;;;;;;;21.47;20.03;;;5.70;17.50;;;;;;4969283;28;20685;-59
2023/03/01 01:25:10;;;;;;;22.63;21.07;;;5.60;17.30;;;;;;4952474;28;20183;-43
2023/03/01 01:27:36;;;;;;;24.17;22.37;;;5.60;17.60;;;;;;4952188;28;20274;-46
2023/03/01 01:30:03;;;;;;;23.23;21.60;;;5.50;17.60;;;;;;4952069;28;20504;-59
2023/03/01 01:32:28;;;;;;;22.10;20.50;;;5.50;17.70;;;;;;4970274;28;20851;-58
2023/03/01 01:34:54;;;;;;;22.23;20.53;;;5.40;17.60;;;;;;4975842;28;20600;-59
2023/03/01 01:37:20;;;;;;;21.83;20.23;;;5.40;18.20;;;;;;4970128;28;20448;-58
2023/03/01 01:39:45;;;;;;;22.97;21.23;;;5.40;17.90;;;;;;4963390;28;20611;-59
2023/03/01 01:42:16;;;;;;;22.37;20.87;;;5.40;17.80;;;;;;4967928;28;20428;-59
2023/03/01 01:44:45;;;;;;;21.93;20.43;;;5.40;17.80;;;;;;4968168;28;20193;-59
2023/03/01 01:47:21;;;;;;;23.57;21.80;;;5.40;18.00;;;;;;4970855;28;20893;-49
2023/03/01 01:49:51;;;;;;;22.60;20.97;;;5.40;18.00;;;;;;4971911;28;20499;-45
2023/03/01 01:52:31;;;;;;;22.33;20.63;;;5.30;18.40;;;;;;4971461;28;20428;-48
2023/03/01 01:55:05;;;;;;;22.83;21.13;;;5.40;18.90;;;;;;4969125;28;20508;-46
2023/03/01 01:57:41;;;;;;;23.37;21.77;;;5.10;18.40;;;;;;4967834;28;20429;-46
2023/03/01 02:00:20;;;;;;;24.80;23.07;;;4.70;19.60;;;;;;4970897;28;20465;-49
2023/03/01 02:02:49;;;;;;;24.03;22.40;;;4.90;19.40;;;;;;4970033;28;20987;-59
2023/03/01 02:05:36;;;;;;;22.90;21.33;;;4.90;19.60;;;;;;4970076;28;20514;-58
2023/03/01 02:08:02;;;;;;;25.23;23.33;;;5.00;19.20;;;;;;4969526;28;20452;-59
2023/03/01 02:10:28;;;;;;;22.63;20.93;;;5.10;18.80;;;;;;4970036;28;20423;-59
2023/03/01 02:12:55;;;;;;;22.83;21.33;;;5.10;18.90;;;;;;4969601;28;20430;-60
2023/03/01 02:15:22;;;;;;;23.43;21.73;;;5.10;18.90;;;;;;4963470;28;20437;-48
2023/03/01 02:17:49;;;;;;;23.07;21.50;;;5.10;18.90;;;;;;4960353;28;20420;-44
2023/03/01 02:20:32;;;;;;;25.80;23.90;;;5.10;19.40;;;;;;4961861;28;20845;-58
2023/03/01 02:22:58;;;;;;;23.27;21.53;;;5.20;18.80;;;;;;4962622;28;20524;-59
2023/03/01 02:25:44;;;;;;;23.83;22.13;;;5.20;18.90;;;;;;4964085;28;20434;-56
2023/03/01 02:28:15;;;;;;;23.30;21.53;;;5.30;18.50;;;;;;4991314;28;20508;-59
2023/03/01 02:33:36;;;;;;;24.07;22.33;;;5.30;18.40;;;;;;4992523;28;20452;-58
2023/03/01 02:36:09;;;;;;;25.73;23.80;;;5.20;18.30;;;;;;4981965;28;20421;-59
2023/03/01 02:38:35;;;;;;;23.57;21.87;;;5.20;18.50;;;;;;4973517;28;20469;-58
2023/03/01 02:41:03;;;;;;;24.23;22.47;;;5.10;18.60;;;;;;4973948;28;20432;-48
2023/03/01 02:43:32;;;;;;;24.53;22.73;;;5.10;18.50;;;;;;4973877;28;20433;-46
2023/03/01 02:46:06;;;;;;;24.17;22.53;;;5.10;18.60;;;;;;4974686;28;20422;-46
2023/03/01 02:48:47;;;;;;;24.07;22.17;;;5.10;18.70;;;;;;4974443;28;20472;-57
2023/03/01 02:51:33;;;;;;;23.97;22.23;;;5.10;18.60;;;;;;4973977;28;20432;-58
2023/03/01 02:54:27;;;;;;;27.47;25.40;;;5.10;18.80;;;;;;4971428;28;20433;-48
2023/03/01 02:56:53;;;;;;;25.10;23.37;;;5.10;18.80;;;;;;4970661;28;20413;-47
2023/03/01 02:59:22;;;;;;;26.00;24.00;;;5.10;18.80;;;;;;4967542;28;21012;-50
2023/03/01 03:01:47;;;;;;;24.37;22.57;;;5.10;18.80;;;;;;4982431;28;20413;-46
2023/03/01 03:04:17;;;;;;;25.37;23.60;;;5.20;18.90;;;;;;4981170;28;20510;-45
2023/03/01 03:06:44;;;;;;;25.87;23.83;;;5.20;18.80;;;;;;4957270;28;20186;-51
2023/03/01 03:09:10;;;;;;;26.17;24.17;;;5.10;18.70;;;;;;4986165;28;20436;-48
2023/03/01 03:11:36;;;;;;;25.90;24.00;;;5.10;18.70;;;;;;4961315;28;20460;-49
2023/03/01 03:14:03;;;;;;;25.37;23.47;;;5.10;19.10;;;;;;4977297;28;20429;-48
2023/03/01 03:16:30;;;;;;;26.77;24.77;;;5.10;19.20;;;;;;4973391;28;20432;-44
2023/03/01 03:19:04;;;;;;;24.80;23.10;;;5.10;19.10;;;;;;4973784;28;21095;-46
2023/03/01 03:21:33;;;;;;;25.23;23.17;;;5.10;19.10;;;;;;4973585;28;20917;-45
2023/03/01 03:23:59;;;;;;;24.87;22.97;;;5.20;19.20;;;;;;4975820;28;20418;-43
2023/03/01 03:26:25;;;;;;;25.00;23.30;;;5.20;19.00;;;;;;4974132;28;20988;-59
2023/03/01 03:28:50;;;;;;;25.20;23.30;;;5.20;19.00;;;;;;4973243;28;20425;-59
2023/03/01 03:31:16;;;;;;;24.50;22.80;;;5.20;18.90;;;;;;4974093;28;20544;-58
2023/03/01 03:33:42;;;;;;;24.87;22.97;;;5.30;18.90;;;;;;4972700;28;20178;-58
2023/03/01 03:36:12;;;;;;;24.20;22.40;;;5.30;18.70;;;;;;4972462;28;20608;-56
2023/03/01 03:38:39;;;;;;;25.93;24.03;;;5.30;18.60;;;;;;4972712;28;20214;-58
2023/03/01 03:41:07;;;;;;;26.47;24.60;;;5.30;18.80;;;;;;4973182;28;20475;-59
2023/03/01 03:43:35;;;;;;;25.13;23.33;;;5.30;19.00;;;;;;4973990;28;20483;-59
2023/03/01 03:46:05;;;;;;;27.40;25.17;;;5.20;18.70;;;;;;4973886;28;20421;-60
2023/03/01 03:48:34;;;;;;;26.83;24.73;;;5.20;19.00;;;;;;4973140;28;20433;-58
2023/03/01 03:50:59;;;;;;;27.40;25.27;;;5.10;19.50;;;;;;4973605;28;20448;-58
2023/03/01 03:53:27;;;;;;;28.13;26.07;;;5.20;19.40;;;;;;4972758;28;20996;-59
2023/03/01 03:55:53;;;;;;;27.33;25.23;;;5.20;19.40;;;;;;4973222;28;20228;-57
2023/03/01 03:58:21;;;;;;;26.13;24.13;;;5.20;19.40;;;;;;4972554;28;20610;-59
2023/03/01 04:00:50;;;;;;;25.40;23.43;;;5.20;19.00;;;;;;4969146;28;20470;-58
2023/03/01 04:03:18;;;;;;;26.33;24.53;;;5.10;19.20;;;;;;4953929;28;20410;-46
2023/03/01 04:05:44;;;;;;;26.83;24.77;;;5.10;19.50;;;;;;4953468;28;20419;-47
2023/03/01 04:08:11;;;;;;;27.37;25.27;;;5.20;19.70;;;;;;4953424;28;20425;-45
2023/03/01 04:10:42;;;;;;;26.10;24.20;;;5.20;19.60;;;;;;4953254;28;20549;-44
2023/03/01 04:13:13;;;;;;;26.67;24.57;;;5.20;19.80;;;;;;4953754;28;20965;-45
2023/03/01 04:15:40;;;;;;;25.73;23.87;;;5.20;19.60;;;;;;4953442;28;20426;-45
2023/03/01 04:18:06;;;;;;;25.63;23.83;;;5.00;19.80;;;;;;4953477;28;20418;-45
2023/03/01 04:20:35;;;;;;;25.00;23.20;;;5.00;20.10;;;;;;4953716;28;20493;-44
2023/03/01 04:23:15;;;;;;;27.17;25.07;;;5.10;19.70;;;;;;4954250;28;20525;-44
2023/03/01 04:25:45;;;;;;;26.03;24.13;;;5.20;19.70;;;;;;4952947;28;20998;-47
2023/03/01 04:28:11;;;;;;;26.43;24.50;;;5.30;19.40;;;;;;4952507;28;20560;-47
2023/03/01 04:30:38;;;;;;;25.53;23.70;;;5.30;19.20;;;;;;4954251;28;20509;-45
2023/03/01 04:33:09;;;;;;;26.20;24.20;;;5.30;19.30;;;;;;4972949;28;20444;-44
2023/03/01 04:35:36;;;;;;;26.30;24.30;;;5.30;19.30;;;;;;4967900;28;20592;-45
2023/03/01 04:38:03;;;;;;;24.20;22.50;;;5.30;19.50;;;;;;4973357;28;21119;-44
2023/03/01 04:40:29;;;;;;;26.37;24.47;;;5.40;19.30;;;;;;4978566;28;21003;-47
2023/03/01 04:42:54;;;;;;;26.47;24.67;;;5.50;19.20;;;;;;4964354;28;20425;-46
2023/03/01 04:45:20;;;;;;;25.97;24.07;;;5.50;19.00;;;;;;4960891;28;20644;-51
2023/03/01 04:47:46;;;;;;;26.57;24.57;;;5.60;19.10;;;;;;4955375;28;20178;-45
2023/03/01 04:50:16;;;;;;;25.80;23.80;;;5.60;18.90;;;;;;4971953;28;20185;-46
2023/03/01 04:52:42;;;;;;;27.03;25.00;;;5.50;18.90;;;;;;4972137;28;20429;-45
2023/03/01 04:55:08;;;;;;;27.50;25.30;;;5.60;18.80;;;;;;4972430;28;20425;-47
2023/03/01 04:57:34;;;;;;;27.10;25.10;;;5.60;19.00;;;;;;4972064;28;20425;-45
2023/03/01 04:59:59;;;;;;;25.40;23.60;;;5.70;18.90;;;;;;4971987;28;20515;-46
2023/03/01 05:02:25;;;;;;;26.70;24.70;;;5.80;18.90;;;;;;4972385;28;20921;-44
2023/03/01 05:04:51;;;;;;;25.80;23.70;;;5.90;18.80;;;;;;4974568;28;20611;-47
2023/03/01 05:07:19;;;;;;;25.17;23.17;;;5.90;18.80;;;;;;4972601;28;20531;-60
2023/03/01 05:09:48;;;;;;;26.83;24.77;;;6.00;18.70;;;;;;4972166;28;20428;-58
2023/03/01 05:12:14;;;;;;;25.50;23.60;;;6.00;18.40;;;;;;4972366;28;20424;-59
2023/03/01 05:14:41;;;;;;;23.40;21.80;;;6.10;18.50;;;;;;4969671;28;20469;-60
2023/03/01 05:17:07;;;;;;;27.57;25.30;;;6.10;18.20;;;;;;4971692;28;20421;-59
2023/03/01 05:19:33;;;;;;;25.37;23.37;;;6.20;18.10;;;;;;4977437;28;20472;-56
2023/03/01 05:22:03;;;;;;;25.53;23.60;;;6.20;17.80;;;;;;4957335;28;20433;-59
2023/03/01 05:24:31;;;;;;;26.07;24.03;;;6.20;17.90;;;;;;4975004;28;20477;-58
2023/03/01 05:26:57;;;;;;;26.53;24.47;;;6.20;18.00;;;;;;4972662;28;20453;-58
2023/03/01 05:29:25;;;;;;;28.03;25.83;;;6.30;17.70;;;;;;4970806;28;20434;-47
2023/03/01 05:31:55;;;;;;;26.60;24.63;;;6.30;17.70;;;;;;4972886;28;20455;-45
2023/03/01 05:34:26;;;;;;;24.40;22.50;;;6.30;17.60;;;;;;4974015;28;20849;-44
2023/03/01 05:36:53;;;;;;;26.60;24.60;;;6.30;17.40;;;;;;4973772;28;20421;-46
2023/03/01 05:39:23;;;;;;;26.33;24.23;;;6.20;17.70;;;;;;4973257;28;20460;-47
2023/03/01 05:41:58;;;;;;;26.33;24.33;;;6.20;17.80;;;;;;4973721;28;20819;-49
2023/03/01 05:44:25;;;;;;;24.40;22.57;;;6.10;18.00;;;;;;4973723;28;20421;-49
2023/03/01 05:46:51;;;;;;;22.87;21.17;;;6.10;18.30;;;;;;4974054;28;20428;-47
2023/03/01 05:49:17;;;;;;;26.17;24.27;;;6.00;18.20;;;;;;4974233;28;20477;-48
2023/03/01 05:51:48;;;;;;;24.97;23.07;;;6.00;18.30;;;;;;4973675;28;20420;-44
2023/03/01 05:54:14;;;;;;;24.03;22.10;;;6.00;20.80;;;;;;4974645;28;20475;-46
2023/03/01 05:56:39;;;;;;;22.80;21.20;;;6.00;19.30;;;;;;4974194;28;20413;-48
2023/03/01 05:59:05;;;;;;;25.73;23.80;;;6.00;18.90;;;;;;4977431;28;20820;-50
2023/03/01 06:01:35;;;;;;;26.10;24.20;;;6.00;18.90;;;;;;4977973;28;20701;-46
2023/03/01 06:04:01;;;;;;;24.63;22.83;;;6.00;18.70;;;;;;4977887;28;20571;-49
2023/03/01 06:06:28;;;;;;;25.10;23.30;;;5.90;18.60;;;;;;4978169;28;20500;-47
2023/03/01 06:08:55;;;;;;;24.80;22.97;;;5.90;18.60;;;;;;4977558;28;20432;-51
2023/03/01 06:11:21;;;;;;;25.60;23.60;;;5.80;18.60;;;;;;4995319;28;20420;-47
2023/03/01 06:13:47;;;;;;;25.73;23.90;;;5.80;18.60;;;;;;4978094;28;20902;-44
2023/03/01 06:16:14;;;;;;;26.00;24.10;;;5.80;18.70;;;;;;4978237;28;20467;-48
2023/03/01 06:18:40;;;;;;;25.00;23.20;;;5.80;21.30;;;;;;4978074;28;20417;-44
2023/03/01 06:21:07;;;;;;;25.90;24.00;;;5.70;21.60;;;;;;4977410;28;20412;-46
2023/03/01 06:23:33;;;;;;;26.53;24.53;;;5.60;20.70;;;;;;4977870;28;20421;-47
2023/03/01 06:26:04;;;;;;;26.53;24.07;;;5.50;20.00;;;;;;4978419;28;20453;-51
2023/03/01 06:28:30;;;;;;;26.30;24.33;;;5.50;19.90;;;;;;5001887;28;20428;-45
2023/03/01 06:30:56;;;;;;;27.20;25.10;;;5.60;19.70;;;;;;4968742;28;20409;-48
2023/03/01 06:33:23;;;;;;;27.20;24.90;;;5.60;19.50;;;;;;4967641;28;20180;-49
2023/03/01 06:35:50;;;;;;;27.70;25.10;;;5.60;19.60;;;;;;4968435;28;20175;-48
2023/03/01 06:38:18;;;;;;;26.47;24.47;;;5.50;19.80;;;;;;4991191;28;20756;-49
2023/03/01 06:40:44;;;;;;;27.00;25.00;;;5.60;19.70;;;;;;4969263;28;20476;-44
2023/03/01 06:43:10;;;;;;;27.60;25.50;;;5.60;19.50;;;;;;4966681;28;20409;-48
2023/03/01 06:45:37;;;;;;;26.53;24.43;;;5.60;19.70;;;;;;4957973;28;20512;-47
2023/03/01 06:48:04;;;;;;;28.33;26.30;;;5.60;19.70;;;;;;4958613;28;20197;-48
2023/03/01 06:50:30;;;;;;;27.27;25.03;;;5.60;19.60;;;;;;4958520;28;20922;-47
2023/03/01 06:52:56;;;;;;;27.77;25.10;;;5.60;19.70;;;;;;4958350;28;20433;-47
2023/03/01 06:55:22;;;;;;;26.80;24.80;;;5.50;19.90;;;;;;4961914;28;20201;-46
2023/03/01 06:57:48;;;;;;;29.50;27.20;;;5.40;20.30;;;;;;4981948;28;20918;-47
2023/03/01 07:00:14;;;;;;;26.03;24.03;;;5.40;19.80;;;;;;4970873;28;20229;-48
2023/03/01 07:02:40;;;;;;;27.77;25.67;;;5.40;19.80;;;;;;4962373;28;20569;-47
2023/03/01 07:05:06;;;;;;;28.40;26.10;;;5.50;19.50;;;;;;4967054;28;20428;-50
2023/03/01 07:07:32;;;;;;;28.20;26.00;;;5.50;19.70;;;;;;4966401;28;20182;-48
2023/03/01 07:09:57;;;;;;;27.17;25.10;;;5.40;19.90;;;;;;4975056;28;20442;-47
2023/03/01 07:12:23;;;;;;;27.70;25.60;;;5.50;19.50;;;;;;4975709;28;20186;-56
2023/03/01 07:14:49;;;;;;;27.80;25.30;;;5.60;19.30;;;;;;4974191;28;20699;-60
2023/03/01 07:17:14;;;;;;;28.23;26.13;;;5.60;19.20;;;;;;4971547;28;20321;-59
2023/03/01 07:19:40;;;;;;;28.63;26.37;;;5.70;19.00;;;;;;4976460;28;20221;-58
2023/03/01 07:22:07;;;;;;;26.90;24.60;;;5.80;19.10;;;;;;4968651;28;20186;-59
2023/03/01 07:24:33;;;;;;;27.00;24.80;;;5.80;19.20;;;;;;4965563;28;20182;-57
2023/03/01 07:26:59;;;;;;;27.50;25.20;;;5.80;18.60;;;;;;4972753;28;20416;-58
2023/03/01 07:29:25;;;;;;;26.87;24.77;;;5.80;20.20;;;;;;4968356;28;20513;-57
2023/03/01 07:31:50;;;;;;;29.57;27.00;;;5.80;21.30;;;;;;4968240;28;20178;-55
2023/03/01 07:34:16;;;;;;;28.17;25.97;;;5.90;20.70;;;;;;4958982;28;20206;-57
2023/03/01 07:36:43;;;;;;;28.33;25.97;;;6.00;20.10;;;;;;4957393;28;20183;-58
2023/03/01 07:39:10;;;;;;;25.77;23.83;;;6.00;19.00;;;;;;4956788;28;20620;-58
2023/03/01 07:41:35;;;;;;;27.43;25.30;;;5.90;18.70;;;;;;4957357;28;20457;-57
2023/03/01 07:44:01;;;;;;;30.70;28.33;;;5.90;18.70;;;;;;4964576;28;20449;-58
2023/03/01 07:46:27;;;;;;;26.90;24.60;;;5.80;18.80;;;;;;4967042;28;20411;-59
2023/03/01 07:48:52;;;;;;;29.33;27.00;;;5.80;18.90;;;;;;4965304;28;20661;-58
2023/03/01 07:51:18;;;;;;;29.47;27.13;;;5.70;18.80;;;;;;4969482;28;20181;-59
2023/03/01 07:53:47;;;;;;;27.20;25.07;;;5.70;18.80;;;;;;4961654;28;20475;-58
2023/03/01 07:56:14;;;;;;;27.17;25.17;;;5.60;19.30;;;;;;4976508;28;20642;-59
2023/03/01 07:58:42;;;;;;;29.67;27.40;;;5.40;19.70;;;;;;4976364;28;20409;-59
2023/03/01 08:01:11;;;;;;;27.83;25.73;;;5.20;20.00;;;;;;4964746;28;20429;-59
2023/03/01 08:03:37;;;;;;;28.10;25.97;;;5.30;19.90;;;;;;4956845;28;20509;-59
2023/03/01 08:06:05;;;;;;;28.23;26.13;;;5.30;19.80;;;;;;4959145;28;20422;-59
2023/03/01 08:08:31;;;;;;;31.20;28.80;;;5.40;19.60;;;;;;4966495;28;20468;-57
2023/03/01 08:10:58;;;;;;;29.53;27.10;;;5.30;19.60;;;;;;4971653;28;20456;-59
2023/03/01 08:13:24;;;;;;;30.47;28.07;;;5.40;19.80;;;;;;4976038;28;20819;-59
2023/03/01 08:15:49;;;;;;;30.40;27.73;;;5.30;20.10;;;;;;4975781;28;20468;-59
2023/03/01 08:18:16;;;;;;;30.00;27.70;;;5.40;19.60;;;;;;4976056;28;20174;-58
2023/03/01 08:20:42;;;;;;;30.27;27.77;;;5.40;19.10;;;;;;4975350;28;20210;-58
2023/03/01 08:23:08;;;;;;;28.10;25.87;;;5.40;19.80;;;;;;4975728;28;20976;-58
2023/03/01 08:25:33;;;;;;;28.83;26.73;;;5.30;19.80;;;;;;4993390;28;20174;-59
2023/03/01 08:27:59;;;;;;;28.40;26.30;;;5.20;20.00;;;;;;4975732;28;20663;-56
2023/03/01 08:30:25;;;;;;;30.10;27.80;;;5.30;19.90;;;;;;4961407;28;20193;-59
2023/03/01 08:32:51;;;;;;;31.33;28.40;;;5.00;20.60;;;;;;4973511;28;20193;-59
2023/03/01 08:35:16;;;;;;;31.67;29.07;;;4.90;20.80;;;;;;4956525;28;20178;-59
2023/03/01 08:37:42;;;;;;;31.77;29.17;;;4.80;20.60;;;;;;4956134;28;20186;-57
2023/03/01 08:40:09;;;;;;;29.17;26.87;;;4.70;20.80;;;;;;4956274;28;20817;-57
2023/03/01 08:42:36;;;;;;;30.80;28.27;;;4.60;21.40;;;;;;4956199;28;20402;-56
2023/03/01 08:45:03;;;;;;;30.37;27.87;;;4.80;20.70;;;;;;4956145;28;20930;-56
2023/03/01 08:47:29;;;;;;;30.57;27.97;;;5.00;20.80;;;;;;4956282;28;20414;-59
2023/03/01 08:49:54;;;;;;;31.23;28.83;;;5.30;20.30;;;;;;4956075;28;20464;-58
2023/03/01 08:52:20;;;;;;;30.20;27.80;;;5.40;19.70;;;;;;4956092;28;20179;-59
2023/03/01 08:54:49;;;;;;;28.50;26.30;;;5.20;20.60;;;;;;4958663;28;20600;-59
2023/03/01 08:57:15;;;;;;;31.03;28.63;;;5.20;20.30;;;;;;4956151;28;20830;-58
2023/03/01 08:59:41;;;;;;;30.47;27.87;;;5.20;20.50;;;;;;4956007;28;20466;-58
2023/03/01 09:02:12;;;;;;;28.43;26.13;;;5.40;19.90;;;;;;4958236;28;20182;-57
2023/03/01 09:04:38;;;;;;;30.93;28.30;;;5.50;19.80;;;;;;4956166;28;20422;-56
2023/03/01 09:07:04;;;;;;;28.40;26.20;;;5.70;19.40;;;;;;4973145;28;20415;-58
2023/03/01 09:09:30;;;;;;;30.37;27.67;;;5.80;18.80;;;;;;4956055;28;20778;-58
2023/03/01 09:11:55;;;;;;;28.80;26.50;;;5.90;18.70;;;;;;4955928;28;20186;-59
2023/03/01 09:14:21;;;;;;;27.03;24.93;;;5.90;18.80;;;;;;4956618;28;20265;-59
2023/03/01 09:16:46;;;;;;;28.97;26.67;;;5.80;19.10;;;;;;4955937;28;20661;-61
2023/03/01 09:19:13;;;;;;;42.97;39.17;;;5.70;19.40;;;;;;4955795;28;20241;-59
2023/03/01 09:21:39;;;;;;;32.50;29.87;;;5.70;19.70;;;;;;4955671;28;20581;-58
2023/03/01 09:24:05;;;;;;;31.03;28.53;;;5.70;19.00;;;;;;4955729;28;20478;-58
2023/03/01 09:26:30;;;;;;;30.33;28.03;;;5.70;19.20;;;;;;4955928;28;20174;-57
2023/03/01 09:28:56;;;;;;;28.03;25.80;;;5.90;19.10;;;;;;4955743;28;20933;-59
2023/03/01 09:31:23;;;;;;;30.67;28.07;;;6.00;19.40;;;;;;4956240;28;20400;-58
2023/03/01 09:33:52;;;;;;;30.07;27.50;;;6.20;18.30;;;;;;4959645;28;20422;-58
2023/03/01 09:36:20;;;;;;;29.70;27.27;;;6.40;17.90;;;;;;4959731;28;20820;-58
2023/03/01 09:38:47;;;;;;;28.97;26.43;;;6.50;17.60;;;;;;4959590;28;20422;-59
2023/03/01 09:41:45;;;;;;;28.73;26.50;;;6.30;18.00;;;;;;4972160;28;20440;-59
2023/03/01 09:44:11;;;;;;;29.20;26.90;;;6.50;18.30;;;;;;4978935;28;20406;-59
2023/03/01 09:46:42;;;;;;;29.17;26.93;;;6.80;17.50;;;;;;4996486;28;20402;-58
2023/03/01 09:49:25;;;;;;;30.47;28.07;;;7.00;17.00;;;;;;4978857;28;20197;-61
2023/03/01 09:52:36;;;;;;;29.63;27.23;;;7.00;16.70;;;;;;4978563;28;20413;-58
2023/03/01 09:55:10;;;;;;;29.33;26.93;;;7.10;16.90;;;;;;5011108;28;20892;-56
2023/03/01 09:57:53;;;;;;;30.20;27.90;;;7.00;16.80;;;;;;4978778;28;20417;-59
2023/03/01 10:00:30;;;;;;;27.93;25.83;;;6.90;16.90;;;;;;4978915;28;20563;-58
2023/03/01 10:03:25;;;;;;;29.03;26.83;;;6.80;17.10;;;;;;4978419;28;20421;-58
2023/03/01 10:06:20;;;;;;;31.03;28.70;;;6.70;17.50;;;;;;4978430;28;20483;-59
2023/03/01 10:08:52;;;;;;;28.90;26.63;;;6.80;17.00;;;;;;4977228;28;20471;-59
2023/03/01 10:11:36;;;;;;;29.50;26.97;;;6.80;16.90;;;;;;4996092;28;20416;-59
2023/03/01 10:14:07;;;;;;;30.50;28.00;;;6.90;17.00;;;;;;4978303;28;20470;-58
2023/03/01 10:16:58;;;;;;;29.13;26.93;;;6.70;16.70;;;;;;4978135;28;20428;-57
2023/03/01 10:19:28;;;;;;;28.37;26.07;;;6.80;17.00;;;;;;5010894;28;20988;-59
2023/03/01 10:21:54;;;;;;;28.87;26.53;;;6.70;17.30;;;;;;4977905;28;20468;-59
2023/03/01 10:24:21;;;;;;;31.07;28.77;;;6.40;17.30;;;;;;4978480;28;20421;-59
2023/03/01 10:27:23;;;;;;;25.73;23.93;;;6.40;17.80;;;;;;4978134;28;20412;-59
2023/03/01 10:30:20;;;;;;;29.27;27.03;;;6.60;17.30;;;;;;4978201;28;20448;-59
2023/03/01 10:32:51;;;;;;;28.00;25.90;;;6.80;17.00;;;;;;4971632;28;20421;-47
2023/03/01 10:35:18;;;;;;;28.80;26.60;;;6.80;16.90;;;;;;4967814;28;20431;-45
2023/03/01 10:38:04;;;;;;;27.10;25.10;;;7.00;16.30;;;;;;4986955;28;20463;-52
2023/03/01 10:40:30;;;;;;;27.80;25.70;;;7.10;16.40;;;;;;5010117;28;20464;-48
2023/03/01 10:42:59;;;;;;;28.60;26.37;;;7.10;16.30;;;;;;4977036;28;20410;-51
2023/03/01 10:45:37;;;;;;;29.30;26.90;;;7.20;16.10;;;;;;4995607;28;20996;-45
2023/03/01 10:48:13;;;;;;;28.40;26.30;;;7.10;16.60;;;;;;4969907;28;20430;-48
2023/03/01 10:50:44;;;;;;;28.20;25.97;;;7.00;16.50;;;;;;4958544;28;20556;-58
2023/03/01 10:53:23;;;;;;;28.13;25.93;;;7.00;16.70;;;;;;4958059;28;20430;-58
2023/03/01 10:56:00;;;;;;;27.70;25.60;;;7.30;16.50;;;;;;4958161;28;20426;-57
2023/03/01 10:58:26;;;;;;;27.50;25.40;;;7.60;16.10;;;;;;4975525;28;20417;-59
2023/03/01 11:00:53;;;;;;;27.27;25.17;;;7.50;15.90;;;;;;4958113;28;20473;-56
2023/03/01 11:03:24;;;;;;;27.60;25.70;;;7.60;15.40;;;;;;4958011;28;20264;-56
2023/03/01 11:06:12;;;;;;;25.90;23.90;;;7.60;16.20;;;;;;4958062;28;20421;-55
2023/03/01 11:08:46;;;;;;;25.47;23.47;;;7.70;15.40;;;;;;4958161;28;20449;-57
2023/03/01 11:11:16;;;;;;;26.23;24.40;;;7.70;15.50;;;;;;4957993;28;20417;-57
2023/03/01 11:14:24;;;;;;;25.50;23.50;;;8.00;14.80;;;;;;4957944;28;20423;-58
2023/03/01 11:17:11;;;;;;;25.07;22.90;;;7.90;14.90;;;;;;4937123;28;20500;-58
2023/03/01 11:19:37;;;;;;;25.90;24.00;;;7.80;15.30;;;;;;4975291;28;20472;-57
2023/03/01 11:22:10;;;;;;;26.97;24.97;;;7.90;15.50;;;;;;4957518;28;20414;-56
2023/03/01 11:24:47;;;;;;;27.63;25.33;;;8.00;14.80;;;;;;4957910;28;20233;-56
2023/03/01 11:27:22;;;;;;;26.57;24.47;;;8.10;14.80;;;;;;4957901;28;20410;-48
2023/03/01 11:30:05;;;;;;;26.43;24.53;;;7.90;14.90;;;;;;4958698;28;20464;-48
2023/03/01 11:32:39;;;;;;;27.47;25.47;;;8.10;14.40;;;;;;4976766;28;20420;-54
2023/03/01 11:35:12;;;;;;;26.23;24.13;;;8.30;14.50;;;;;;4976621;28;20417;-58
2023/03/01 11:38:00;;;;;;;26.70;24.63;;;8.30;14.40;;;;;;4976861;28;20844;-56
2023/03/01 11:40:41;;;;;;;27.00;24.83;;;8.40;14.60;;;;;;4976766;28;20467;-60
2023/03/01 11:43:19;;;;;;;26.93;24.77;;;8.30;14.50;;;;;;4976248;28;20417;-57
2023/03/01 11:45:50;;;;;;;24.90;22.90;;;8.30;14.60;;;;;;4976408;28;20822;-58
2023/03/01 11:48:27;;;;;;;25.87;23.90;;;8.30;14.50;;;;;;4993803;28;20433;-58
2023/03/01 11:50:56;;;;;;;26.40;24.30;;;8.50;14.70;;;;;;4976196;28;20417;-57
2023/03/01 11:53:35;;;;;;;26.20;24.10;;;8.50;14.70;;;;;;4976099;28;20436;-58
2023/03/01 11:56:37;;;;;;;26.57;24.67;;;8.30;14.60;;;;;;4975230;28;20435;-58
2023/03/01 11:59:13;;;;;;;26.53;24.50;;;8.40;14.60;;;;;;4975978;28;20557;-56
2023/03/01 12:01:51;;;;;;;26.70;24.73;;;8.50;14.70;;;;;;4975941;28;20595;-46
2023/03/01 12:04:38;;;;;;;27.70;25.60;;;8.50;14.70;;;;;;4976306;28;20447;-45
2023/03/01 12:07:25;;;;;;;28.03;25.93;;;8.30;14.60;;;;;;4976138;28;20425;-44
2023/03/01 12:10:27;;;;;;;27.23;25.27;;;8.50;14.70;;;;;;4976141;28;20914;-43
2023/03/01 12:13:24;;;;;;;25.90;24.00;;;8.70;14.10;;;;;;4975862;28;20421;-44
2023/03/01 12:16:05;;;;;;;25.90;23.90;;;8.70;14.50;;;;;;4975200;28;20436;-45
2023/03/01 12:18:34;;;;;;;25.30;23.47;;;8.70;14.20;;;;;;4975659;28;20432;-44
2023/03/01 12:21:17;;;;;;;24.77;22.90;;;8.90;14.00;;;;;;4975708;28;20468;-48
2023/03/01 12:23:55;;;;;;;28.60;26.30;;;8.80;14.00;;;;;;4972836;28;20544;-44
2023/03/01 12:26:55;;;;;;;42.73;38.43;;;8.90;13.90;;;;;;5008456;28;20802;-43
2023/03/01 12:29:45;;;;;;;79.07;68.93;;;8.90;13.40;;;;;;5008328;28;20420;-46
2023/03/01 12:32:34;;;;;;;26.67;24.67;;;8.90;15.00;;;;;;4993005;28;20413;-46
2023/03/01 12:35:15;;;;;;;24.17;22.27;;;8.90;14.00;;;;;;5008080;28;20417;-43
2023/03/01 12:37:59;;;;;;;22.70;21.00;;;8.90;15.00;;;;;;5008204;28;20495;-46
2023/03/01 12:41:01;;;;;;;24.07;22.17;;;8.80;14.90;;;;;;5007900;28;20460;-45
2023/03/01 12:43:58;;;;;;;29.90;27.10;;;8.80;15.10;;;;;;4951853;29;20426;-49
2023/03/01 12:46:42;;;;;;;34.67;31.47;;;8.80;14.60;;;;;;5008058;28;20449;-49
2023/03/01 12:49:16;;;;;;;38.60;31.60;;;9.00;14.70;;;;;;5004546;28;20476;-47
2023/03/01 12:51:49;;;;;;;25.40;23.37;;;9.10;14.10;;;;;;4975086;28;20870;-46
2023/03/01 12:54:23;;;;;;;23.50;21.70;;;9.10;13.90;;;;;;4975213;28;20421;-44
2023/03/01 12:56:52;;;;;;;23.50;21.70;;;9.10;14.10;;;;;;4975033;28;20421;-46